createdAt,value
2023-05-21T00:01:51.046Z,13.15
2023-05-21T00:03:57.403Z,13.12
2023-05-21T00:06:04.081Z,13.10
2023-05-21T00:08:08.299Z,13.08
2023-05-21T00:10:15.426Z,13.06
2023-05-21T00:12:19.683Z,13.04
2023-05-21T00:14:24.026Z,13.03
2023-05-21T00:16:28.037Z,13.00
2023-05-21T00:18:32.794Z,12.99
2023-05-21T00:20:37.405Z,12.99
2023-05-21T00:22:42.615Z,12.98
2023-05-21T00:24:46.702Z,12.96
2023-05-21T00:26:51.851Z,12.95
2023-05-21T00:28:55.630Z,12.96
2023-05-21T00:30:59.555Z,12.94
2023-05-21T00:33:04.758Z,12.90
2023-05-21T00:35:11.307Z,12.89
2023-05-21T00:37:15.456Z,12.89
2023-05-21T00:39:19.031Z,12.91
2023-05-21T00:41:25.800Z,12.95
2023-05-21T00:43:33.842Z,12.94
2023-05-21T00:45:38.050Z,12.94
2023-05-21T00:47:44.339Z,12.92
2023-05-21T00:49:48.518Z,12.89
2023-05-21T00:51:53.858Z,12.89
2023-05-21T00:53:59.974Z,12.89
2023-05-21T00:56:04.678Z,12.89
2023-05-21T00:58:09.440Z,12.89
2023-05-21T01:00:16.616Z,12.87
2023-05-21T01:02:20.777Z,12.84
2023-05-21T01:04:25.511Z,12.82
2023-05-21T01:06:30.098Z,12.80
2023-05-21T01:08:35.276Z,12.78
2023-05-21T01:10:39.821Z,12.77
2023-05-21T01:12:46.739Z,12.76
2023-05-21T01:14:51.785Z,12.76
2023-05-21T01:16:57.990Z,12.77
2023-05-21T01:19:03.760Z,12.77
2023-05-21T01:21:10.100Z,12.76
2023-05-21T01:23:16.624Z,12.75
2023-05-21T01:25:21.508Z,12.77
2023-05-21T01:27:25.815Z,12.78
2023-05-21T01:29:30.380Z,12.79
2023-05-21T01:31:42.225Z,12.79
2023-05-21T01:33:52.979Z,12.78
2023-05-21T01:36:04.240Z,12.77
2023-05-21T01:38:17.124Z,12.76
2023-05-21T01:40:27.497Z,12.71
2023-05-21T01:42:33.550Z,12.68
2023-05-21T01:44:37.973Z,12.64
2023-05-21T01:46:42.151Z,12.62
2023-05-21T01:48:46.797Z,12.60
2023-05-21T01:50:53.174Z,12.57
2023-05-21T01:52:58.832Z,12.56
2023-05-21T01:55:05.136Z,12.55
2023-05-21T01:57:08.985Z,12.54
2023-05-21T01:59:16.108Z,12.55
2023-05-21T02:01:21.061Z,12.55
2023-05-21T02:03:31.896Z,12.51
2023-05-21T02:05:36.197Z,12.51
2023-05-21T02:07:40.650Z,12.51
2023-05-21T02:09:44.610Z,12.50
2023-05-21T02:11:49.536Z,12.48
2023-05-21T02:13:54.657Z,12.47
2023-05-21T02:15:58.448Z,12.47
2023-05-21T02:18:03.640Z,12.48
2023-05-21T02:20:11.602Z,12.44
2023-05-21T02:22:15.499Z,12.44
2023-05-21T02:24:20.070Z,12.41
2023-05-21T02:26:24.081Z,12.38
2023-05-21T02:28:29.987Z,12.35
2023-05-21T02:30:34.497Z,12.34
2023-05-21T02:32:39.924Z,12.34
2023-05-21T02:34:45.323Z,12.35
2023-05-21T02:36:52.591Z,12.33
2023-05-21T02:38:57.971Z,12.32
2023-05-21T02:41:02.486Z,12.29
2023-05-21T02:43:07.996Z,12.26
2023-05-21T02:45:15.198Z,12.22
2023-05-21T02:47:21.305Z,12.21
2023-05-21T02:49:25.229Z,12.21
2023-05-21T02:51:29.186Z,12.21
2023-05-21T02:53:36.350Z,12.21
2023-05-21T02:55:41.540Z,12.21
2023-05-21T02:57:45.383Z,12.20
2023-05-21T02:59:49.974Z,12.17
2023-05-21T03:01:56.762Z,12.13
2023-05-21T03:04:01.500Z,12.10
2023-05-21T03:06:10.317Z,12.04
2023-05-21T03:08:14.103Z,11.99
2023-05-21T03:10:18.497Z,11.96
2023-05-21T03:12:24.213Z,11.95
2023-05-21T03:14:29.544Z,11.94
2023-05-21T03:16:34.887Z,11.94
2023-05-21T03:18:39.885Z,11.95
2023-05-21T03:20:45.872Z,11.94
2023-05-21T03:22:50.128Z,11.90
2023-05-21T03:24:54.719Z,11.86
2023-05-21T03:26:59.401Z,11.82
2023-05-21T03:29:02.907Z,11.79
2023-05-21T03:31:06.681Z,11.77
2023-05-21T03:33:14.087Z,11.77
2023-05-21T03:35:20.998Z,11.77
2023-05-21T03:37:25.090Z,11.74
2023-05-21T03:39:28.885Z,11.72
2023-05-21T03:41:33.199Z,11.70
2023-05-21T03:43:43.480Z,11.67
2023-05-21T03:45:47.249Z,11.64
2023-05-21T03:48:25.248Z,11.61
2023-05-21T03:50:30.266Z,11.59
2023-05-21T03:52:33.799Z,11.57
2023-05-21T03:54:37.875Z,11.54
2023-05-21T03:56:44.292Z,11.50
2023-05-21T03:58:48.549Z,11.49
2023-05-21T04:00:52.154Z,11.48
2023-05-21T04:02:55.892Z,11.46
2023-05-21T04:04:59.545Z,11.43
2023-05-21T04:07:05.284Z,11.42
2023-05-21T04:09:08.895Z,11.39
2023-05-21T04:11:13.186Z,11.40
2023-05-21T04:13:17.095Z,11.39
2023-05-21T04:15:21.167Z,11.38
2023-05-21T04:17:27.102Z,11.40
2023-05-21T04:19:32.233Z,11.40
2023-05-21T04:21:36.888Z,11.40
2023-05-21T04:23:42.956Z,11.43
2023-05-21T04:25:59.197Z,11.46
2023-05-21T04:28:02.869Z,11.50
2023-05-21T04:30:07.396Z,11.51
2023-05-21T04:32:15.629Z,11.54
2023-05-21T04:34:22.118Z,11.54
2023-05-21T04:36:25.632Z,11.52
2023-05-21T04:38:29.392Z,11.54
2023-05-21T04:40:34.115Z,11.52
2023-05-21T04:42:41.762Z,11.52
2023-05-21T04:44:46.802Z,11.54
2023-05-21T04:46:50.801Z,11.54
2023-05-21T04:48:55.453Z,11.54
2023-05-21T04:51:00.282Z,11.53
2023-05-21T04:53:04.724Z,11.57
2023-05-21T04:55:09.040Z,11.59
2023-05-21T04:57:14.215Z,11.62
2023-05-21T04:59:18.867Z,11.66
2023-05-21T05:01:24.095Z,11.70
2023-05-21T05:03:27.631Z,11.72
2023-05-21T05:05:31.912Z,11.74
2023-05-21T05:07:36.168Z,11.75
2023-05-21T05:09:40.204Z,11.78
2023-05-21T05:11:43.676Z,11.82
2023-05-21T05:13:48.498Z,11.88
2023-05-21T05:15:54.450Z,11.90
2023-05-21T05:17:58.408Z,11.95
2023-05-21T05:20:02.060Z,11.96
2023-05-21T05:22:06.200Z,11.97
2023-05-21T05:24:10.475Z,11.97
2023-05-21T05:26:13.850Z,12.00
2023-05-21T05:28:17.713Z,12.04
2023-05-21T05:30:23.884Z,12.05
2023-05-21T05:32:28.501Z,12.08
2023-05-21T05:34:32.957Z,12.12
2023-05-21T05:36:36.824Z,12.17
2023-05-21T05:38:44.583Z,12.22
2023-05-21T05:40:48.083Z,12.28
2023-05-21T05:42:54.882Z,12.31
2023-05-21T05:45:01.492Z,12.31
2023-05-21T05:47:10.911Z,12.33
2023-05-21T05:49:15.973Z,12.36
2023-05-21T05:51:19.826Z,12.40
2023-05-21T05:53:25.277Z,12.41
2023-05-21T05:55:29.377Z,12.42
2023-05-21T05:57:34.309Z,12.42
2023-05-21T05:59:45.679Z,12.39
2023-05-21T06:01:53.012Z,12.39
2023-05-21T06:04:01.141Z,12.32
2023-05-21T06:06:06.963Z,12.33
2023-05-21T06:08:11.986Z,12.37
2023-05-21T06:10:15.481Z,12.42
2023-05-21T06:12:24.296Z,12.47
2023-05-21T06:14:31.515Z,12.52
2023-05-21T06:16:38.862Z,12.56
2023-05-21T06:18:42.693Z,12.58
2023-05-21T06:20:47.996Z,12.64
2023-05-21T06:22:53.692Z,12.68
2023-05-21T06:24:58.273Z,12.69
2023-05-21T06:27:02.248Z,12.75
2023-05-21T06:29:06.097Z,12.79
2023-05-21T06:31:09.766Z,12.83
2023-05-21T06:33:15.152Z,12.86
2023-05-21T06:35:22.052Z,12.90
2023-05-21T06:37:27.161Z,12.94
2023-05-21T06:39:32.018Z,12.96
2023-05-21T06:41:36.167Z,12.98
2023-05-21T06:43:57.042Z,13.02
2023-05-21T06:46:19.149Z,13.07
2023-05-21T06:48:22.624Z,13.11
2023-05-21T06:50:26.464Z,13.15
2023-05-21T06:52:32.094Z,13.18
2023-05-21T06:54:37.956Z,13.23
2023-05-21T06:56:42.568Z,13.28
2023-05-21T06:58:46.174Z,13.32
2023-05-21T07:00:49.645Z,13.38
2023-05-21T07:02:54.576Z,13.43
2023-05-21T07:04:58.145Z,13.48
2023-05-21T07:07:01.947Z,13.52
2023-05-21T07:09:07.198Z,13.57
2023-05-21T07:11:11.751Z,13.57
2023-05-21T07:13:15.619Z,13.58
2023-05-21T07:15:19.312Z,13.59
2023-05-21T07:17:22.901Z,13.62
2023-05-21T07:19:26.609Z,13.65
2023-05-21T07:21:30.297Z,13.70
2023-05-21T07:23:34.224Z,13.74
2023-05-21T07:25:39.436Z,13.83
2023-05-21T07:27:49.148Z,13.91
2023-05-21T07:29:52.345Z,13.98
2023-05-21T07:31:57.552Z,14.02
2023-05-21T07:34:01.072Z,14.12
2023-05-21T07:36:09.231Z,14.24
2023-05-21T07:38:12.973Z,14.38
2023-05-21T07:40:16.453Z,14.53
2023-05-21T07:42:22.359Z,14.69
2023-05-21T07:44:26.093Z,14.81
2023-05-21T07:46:29.558Z,14.85
2023-05-21T07:48:35.552Z,14.82
2023-05-21T07:50:40.196Z,14.81
2023-05-21T07:52:44.636Z,14.85
2023-05-21T07:54:50.922Z,14.88
2023-05-21T07:56:54.683Z,14.93
2023-05-21T07:59:38.381Z,14.95
2023-05-21T08:01:43.968Z,14.98
2023-05-21T08:03:47.708Z,15.05
2023-05-21T08:05:52.161Z,15.14
2023-05-21T08:07:55.729Z,15.20
2023-05-21T08:10:00.595Z,15.20
2023-05-21T08:12:06.270Z,15.10
2023-05-21T08:14:10.369Z,15.07
2023-05-21T08:16:15.453Z,15.12
2023-05-21T08:18:19.411Z,15.11
2023-05-21T08:20:23.756Z,15.01
2023-05-21T08:22:27.631Z,14.92
2023-05-21T08:24:32.406Z,14.85
2023-05-21T08:26:41.652Z,14.85
2023-05-21T08:28:45.496Z,14.85
2023-05-21T08:30:49.463Z,15.01
2023-05-21T08:32:56.582Z,15.21
2023-05-21T08:35:02.888Z,15.39
2023-05-21T08:37:20.586Z,15.46
2023-05-21T08:39:40.394Z,15.53
2023-05-21T08:41:50.101Z,15.48
2023-05-21T08:43:58.578Z,15.50
2023-05-21T08:46:06.422Z,15.49
2023-05-21T08:48:19.213Z,15.54
2023-05-21T08:50:27.433Z,15.65
2023-05-21T08:52:35.387Z,15.73
2023-05-21T08:54:40.190Z,15.74
2023-05-21T08:56:49.533Z,15.69
2023-05-21T08:58:55.098Z,15.70
2023-05-21T09:01:03.372Z,15.66
2023-05-21T09:03:10.716Z,15.56
2023-05-21T09:05:19.344Z,15.48
2023-05-21T09:07:27.601Z,15.49
2023-05-21T09:09:58.912Z,15.54
2023-05-21T09:12:03.537Z,15.46
2023-05-21T09:14:08.351Z,15.35
2023-05-21T09:16:32.341Z,15.28
2023-05-21T09:18:37.606Z,15.28
2023-05-21T09:21:27.166Z,15.20
2023-05-21T09:23:35.262Z,15.08
2023-05-21T09:25:40.724Z,15.01
2023-05-21T09:27:50.962Z,14.94
2023-05-21T09:29:59.276Z,14.86
2023-05-21T09:32:10.276Z,14.77
2023-05-21T09:34:21.842Z,14.70
2023-05-21T09:36:29.816Z,14.64
2023-05-21T09:38:36.319Z,14.60
2023-05-21T09:40:46.459Z,14.58
2023-05-21T09:42:52.954Z,14.58
2023-05-21T09:44:58.731Z,14.56
2023-05-21T09:47:04.701Z,14.58
2023-05-21T09:49:08.649Z,14.61
2023-05-21T09:51:14.463Z,14.56
2023-05-21T09:53:20.827Z,14.52
2023-05-21T09:55:29.258Z,14.61
2023-05-21T09:57:35.990Z,14.65
2023-05-21T09:59:42.796Z,14.70
2023-05-21T10:01:47.901Z,14.74
2023-05-21T10:03:57.930Z,14.72
2023-05-21T10:06:03.125Z,14.78
2023-05-21T10:08:11.054Z,14.81
2023-05-21T10:10:17.265Z,14.81
2023-05-21T10:12:24.916Z,14.89
2023-05-21T10:14:35.328Z,14.91
2023-05-21T10:16:39.931Z,14.98
2023-05-21T10:18:47.138Z,15.15
2023-05-21T10:20:54.241Z,15.23
2023-05-21T10:22:59.969Z,15.24
2023-05-21T10:25:06.167Z,15.25
2023-05-21T10:27:13.954Z,15.26
2023-05-21T10:29:21.509Z,15.23
2023-05-21T10:31:29.936Z,15.27
2023-05-21T10:33:35.922Z,15.32
2023-05-21T10:35:42.571Z,15.33
2023-05-21T10:37:47.818Z,15.31
2023-05-21T10:39:54.378Z,15.31
2023-05-21T10:42:06.653Z,15.42
2023-05-21T10:44:28.441Z,15.44
2023-05-21T10:47:20.546Z,15.43
2023-05-21T10:50:01.510Z,15.37
2023-05-21T10:52:14.772Z,15.37
2023-05-21T10:54:40.258Z,15.37
2023-05-21T10:56:50.689Z,15.41
2023-05-21T10:59:22.530Z,15.51
2023-05-21T11:01:30.771Z,15.57
2023-05-21T11:03:38.071Z,15.73
2023-05-21T11:05:43.079Z,15.84
2023-05-21T11:07:54.022Z,15.82
2023-05-21T11:10:32.986Z,15.75
2023-05-21T11:12:39.043Z,15.70
2023-05-21T11:14:58.888Z,15.59
2023-05-21T11:17:04.325Z,15.68
2023-05-21T11:19:08.495Z,15.87
2023-05-21T11:21:13.832Z,15.95
2023-05-21T11:23:17.672Z,16.10
2023-05-21T11:25:21.839Z,16.17
2023-05-21T11:27:36.154Z,16.18
2023-05-21T11:29:47.496Z,16.16
2023-05-21T11:32:03.229Z,16.20
2023-05-21T11:34:17.370Z,16.06
2023-05-21T11:36:21.228Z,15.90
2023-05-21T11:38:25.290Z,15.79
2023-05-21T11:40:31.269Z,15.80
2023-05-21T11:42:36.875Z,15.78
2023-05-21T11:44:41.508Z,15.87
2023-05-21T11:46:48.124Z,16.00
2023-05-21T11:48:54.212Z,15.97
2023-05-21T11:51:00.210Z,15.88
2023-05-21T11:53:05.001Z,15.97
2023-05-21T11:55:09.830Z,15.98
2023-05-21T11:57:16.890Z,16.06
2023-05-21T11:59:21.455Z,16.14
2023-05-21T12:01:26.877Z,16.28
2023-05-21T12:03:36.516Z,16.23
2023-05-21T12:05:46.594Z,16.19
2023-05-21T12:07:51.596Z,16.08
2023-05-21T12:09:56.048Z,16.06
2023-05-21T12:11:59.931Z,16.09
2023-05-21T12:14:03.673Z,16.03
2023-05-21T12:16:08.503Z,16.02
2023-05-21T12:18:12.094Z,15.98
2023-05-21T12:20:18.504Z,15.97
2023-05-21T12:22:24.057Z,15.98
2023-05-21T12:24:28.674Z,15.96
2023-05-21T12:26:35.656Z,15.99
2023-05-21T12:28:39.686Z,15.96
2023-05-21T12:30:43.462Z,15.90
2023-05-21T12:32:47.252Z,15.81
2023-05-21T12:34:52.879Z,15.76
2023-05-21T12:36:58.667Z,15.89
2023-05-21T12:39:02.989Z,15.92
2023-05-21T12:41:08.333Z,15.94
2023-05-21T12:43:12.644Z,16.05
2023-05-21T12:45:23.000Z,16.12
2023-05-21T12:47:29.334Z,16.28
2023-05-21T12:49:36.220Z,16.36
2023-05-21T12:51:41.161Z,16.36
2023-05-21T12:53:47.797Z,16.24
2023-05-21T12:55:52.042Z,16.08
2023-05-21T12:58:05.377Z,16.10
2023-05-21T13:00:10.524Z,16.03
2023-05-21T13:02:23.360Z,16.01
2023-05-21T13:04:27.354Z,16.01
2023-05-21T13:06:32.032Z,15.95
2023-05-21T13:08:36.478Z,16.00
2023-05-21T13:10:41.799Z,16.13
2023-05-21T13:12:46.225Z,16.11
2023-05-21T13:14:50.011Z,15.94
2023-05-21T13:16:53.690Z,15.97
2023-05-21T13:18:57.822Z,15.96
2023-05-21T13:21:01.698Z,16.03
2023-05-21T13:23:08.352Z,15.93
2023-05-21T13:25:16.130Z,15.81
2023-05-21T13:27:21.318Z,15.78
2023-05-21T13:29:26.177Z,15.70
2023-05-21T13:31:30.416Z,15.72
2023-05-21T13:33:34.792Z,15.63
2023-05-21T13:35:38.767Z,15.61
2023-05-21T13:37:42.925Z,15.54
2023-05-21T13:39:46.777Z,15.48
2023-05-21T13:41:50.544Z,15.48
2023-05-21T13:43:56.032Z,15.49
2023-05-21T13:45:59.864Z,15.51
2023-05-21T13:48:03.846Z,15.56
2023-05-21T13:50:09.090Z,15.67
2023-05-21T13:52:13.501Z,15.71
2023-05-21T13:54:20.539Z,15.69
2023-05-21T13:56:24.445Z,15.63
2023-05-21T13:58:28.402Z,15.61
2023-05-21T14:00:33.905Z,15.63
2023-05-21T14:02:38.186Z,15.60
2023-05-21T14:04:42.423Z,15.58
2023-05-21T14:06:46.332Z,15.57
2023-05-21T14:08:50.208Z,15.67
2023-05-21T14:10:54.118Z,15.79
2023-05-21T14:13:04.693Z,15.83
2023-05-21T14:15:16.283Z,15.82
2023-05-21T14:17:21.314Z,15.81
2023-05-21T14:19:25.003Z,15.68
2023-05-21T14:21:28.673Z,15.68
2023-05-21T14:23:32.444Z,15.52
2023-05-21T14:25:36.319Z,15.48
2023-05-21T14:27:41.744Z,15.50
2023-05-21T14:29:45.818Z,15.38
2023-05-21T14:31:49.617Z,15.40
2023-05-21T14:33:54.732Z,15.34
2023-05-21T14:35:58.704Z,15.36
2023-05-21T14:38:02.517Z,15.42
2023-05-21T14:40:08.261Z,15.55
2023-05-21T14:42:12.113Z,15.52
2023-05-21T14:44:16.038Z,15.48
2023-05-21T14:46:20.905Z,15.42
2023-05-21T14:48:25.827Z,15.40
2023-05-21T14:50:32.077Z,15.32
2023-05-21T14:52:36.630Z,15.27
2023-05-21T14:54:40.903Z,15.19
2023-05-21T14:56:45.082Z,15.16
2023-05-21T14:58:49.527Z,15.20
2023-05-21T15:00:53.966Z,15.26
2023-05-21T15:02:58.429Z,15.27
2023-05-21T15:05:03.434Z,15.42
2023-05-21T15:07:09.271Z,15.59
2023-05-21T15:09:13.278Z,15.62
2023-05-21T15:11:17.157Z,15.57
2023-05-21T15:13:21.629Z,15.42
2023-05-21T15:15:25.617Z,15.42
2023-05-21T15:17:29.490Z,15.35
2023-05-21T15:19:33.488Z,15.37
2023-05-21T15:21:37.384Z,15.33
2023-05-21T15:23:42.967Z,15.30
2023-05-21T15:25:47.388Z,15.33
2023-05-21T15:27:52.226Z,15.33
2023-05-21T15:29:56.216Z,15.34
2023-05-21T15:32:01.521Z,15.23
2023-05-21T15:34:05.743Z,15.13
2023-05-21T15:36:10.255Z,15.06
2023-05-21T15:38:14.877Z,15.07
2023-05-21T15:40:20.940Z,15.05
2023-05-21T15:42:25.498Z,15.00
2023-05-21T15:44:29.655Z,14.99
2023-05-21T15:46:33.323Z,14.98
2023-05-21T15:48:37.202Z,14.96
2023-05-21T15:50:41.167Z,15.07
2023-05-21T15:52:45.131Z,15.12
2023-05-21T15:54:48.964Z,15.16
2023-05-21T15:56:55.249Z,15.20
2023-05-21T15:59:01.571Z,15.21
2023-05-21T16:01:05.590Z,15.10
2023-05-21T16:03:09.793Z,14.99
2023-05-21T16:05:13.661Z,14.87
2023-05-21T16:07:17.739Z,14.95
2023-05-21T16:09:21.713Z,14.99
2023-05-21T16:11:26.361Z,15.04
2023-05-21T16:13:31.529Z,14.99
2023-05-21T16:15:35.453Z,14.94
2023-05-21T16:17:39.457Z,14.93
2023-05-21T16:19:43.342Z,14.88
2023-05-21T16:21:47.027Z,14.85
2023-05-21T16:23:52.062Z,14.82
2023-05-21T16:25:56.105Z,14.82
2023-05-21T16:28:00.154Z,14.82
2023-05-21T16:30:07.674Z,14.77
2023-05-21T16:32:14.377Z,14.68
2023-05-21T16:34:19.047Z,14.61
2023-05-21T16:36:23.358Z,14.52
2023-05-21T16:38:27.692Z,14.50
2023-05-21T16:40:32.248Z,14.51
2023-05-21T16:42:36.438Z,14.49
2023-05-21T16:44:42.466Z,14.49
2023-05-21T16:46:49.598Z,14.48
2023-05-21T16:48:54.255Z,14.53
2023-05-21T16:50:58.750Z,14.45
2023-05-21T16:53:03.625Z,14.39
2023-05-21T16:55:09.101Z,14.33
2023-05-21T16:57:13.136Z,14.36
2023-05-21T16:59:17.227Z,14.38
2023-05-21T17:01:21.274Z,14.44
2023-05-21T17:03:26.783Z,14.37
2023-05-21T17:05:30.626Z,14.28
2023-05-21T17:07:34.520Z,14.31
2023-05-21T17:09:38.339Z,14.24
2023-05-21T17:11:43.843Z,14.15
2023-05-21T17:13:48.701Z,14.13
2023-05-21T17:15:52.631Z,14.05
2023-05-21T17:18:00.534Z,14.10
2023-05-21T17:20:08.149Z,14.11
2023-05-21T17:22:13.991Z,14.15
2023-05-21T17:24:18.096Z,14.14
2023-05-21T17:26:23.838Z,14.16
2023-05-21T17:28:27.812Z,14.13
2023-05-21T17:30:31.748Z,14.02
2023-05-21T17:32:36.927Z,14.03
2023-05-21T17:34:41.082Z,14.00
2023-05-21T17:36:46.941Z,14.01
2023-05-21T17:38:51.108Z,13.95
2023-05-21T17:40:56.680Z,13.97
2023-05-21T17:43:00.408Z,13.97
2023-05-21T17:45:04.625Z,13.92
2023-05-21T17:47:09.153Z,13.92
2023-05-21T17:49:15.886Z,13.97
2023-05-21T17:51:20.108Z,14.01
2023-05-21T17:53:25.451Z,13.88
2023-05-21T17:55:30.911Z,13.83
2023-05-21T17:57:35.912Z,13.88
2023-05-21T17:59:46.971Z,13.84
2023-05-21T18:01:53.522Z,13.86
2023-05-21T18:03:58.893Z,13.82
2023-05-21T18:06:05.063Z,13.83
2023-05-21T18:08:12.274Z,13.83
2023-05-21T18:10:18.779Z,13.82
2023-05-21T18:12:24.259Z,13.75
2023-05-21T18:14:30.301Z,13.73
2023-05-21T18:16:40.222Z,13.69
2023-05-21T18:18:47.621Z,13.66
2023-05-21T18:20:54.842Z,13.62
2023-05-21T18:23:00.881Z,13.63
2023-05-21T18:25:09.353Z,13.66
2023-05-21T18:27:18.265Z,13.61
2023-05-21T18:29:26.960Z,13.60
2023-05-21T18:31:34.173Z,13.56
2023-05-21T18:33:42.720Z,13.53
2023-05-21T18:35:48.187Z,13.54
2023-05-21T18:37:54.585Z,13.49
2023-05-21T18:40:07.321Z,13.46
2023-05-21T18:42:15.347Z,13.43
2023-05-21T18:44:25.243Z,13.45
2023-05-21T18:46:30.579Z,13.50
2023-05-21T18:48:35.211Z,13.49
2023-05-21T18:50:40.192Z,13.48
2023-05-21T18:52:47.079Z,13.45
2023-05-21T18:54:53.656Z,13.44
2023-05-21T18:57:03.445Z,13.42
2023-05-21T18:59:11.453Z,13.45
2023-05-21T19:01:18.945Z,13.47
2023-05-21T19:03:23.573Z,13.42
2023-05-21T19:05:30.141Z,13.41
2023-05-21T19:07:34.715Z,13.44
2023-05-21T19:09:39.223Z,13.43
2023-05-21T19:11:43.052Z,13.42
2023-05-21T19:13:48.620Z,13.40
2023-05-21T19:15:55.272Z,13.38
2023-05-21T19:18:04.046Z,13.36
2023-05-21T19:20:10.540Z,13.34
2023-05-21T19:22:16.134Z,13.31
2023-05-21T19:24:22.113Z,13.30
2023-05-21T19:26:31.435Z,13.27
2023-05-21T19:28:36.422Z,13.26
2023-05-21T19:30:42.567Z,13.26
2023-05-21T19:32:49.210Z,13.26
2023-05-21T19:34:57.723Z,13.31
2023-05-21T19:37:02.879Z,13.27
2023-05-21T19:39:09.276Z,13.20
2023-05-21T19:41:31.727Z,13.17
2023-05-21T19:43:38.049Z,13.18
2023-05-21T19:45:44.345Z,13.25
2023-05-21T19:47:59.745Z,13.30
2023-05-21T19:50:09.133Z,13.21
2023-05-21T19:52:14.070Z,13.20
2023-05-21T19:54:19.102Z,13.19
2023-05-21T19:56:23.892Z,13.17
2023-05-21T19:58:31.251Z,13.19
2023-05-21T20:00:35.794Z,13.23
2023-05-21T20:02:41.263Z,13.23
2023-05-21T20:04:46.301Z,13.29
2023-05-21T20:06:53.828Z,13.34
2023-05-21T20:08:59.380Z,13.36
2023-05-21T20:11:04.546Z,13.43
2023-05-21T20:13:10.113Z,13.50
2023-05-21T20:15:15.502Z,13.50
2023-05-21T20:17:20.414Z,13.53
2023-05-21T20:19:24.313Z,13.54
2023-05-21T20:21:29.342Z,13.56
2023-05-21T20:23:35.637Z,13.54
2023-05-21T20:25:41.282Z,13.54
2023-05-21T20:27:45.744Z,13.56
2023-05-21T20:29:50.458Z,13.57
2023-05-21T20:31:54.618Z,13.55
2023-05-21T20:33:59.497Z,13.57
2023-05-21T20:36:06.573Z,13.56
2023-05-21T20:38:12.029Z,13.54
2023-05-21T20:40:19.283Z,13.53
2023-05-21T20:42:27.940Z,13.51
2023-05-21T20:44:34.400Z,13.45
2023-05-21T20:46:41.393Z,13.45
2023-05-21T20:48:45.537Z,13.43
2023-05-21T20:50:50.331Z,13.44
2023-05-21T20:52:58.737Z,13.45
2023-05-21T20:55:04.848Z,13.39
2023-05-21T20:57:10.941Z,13.30
2023-05-21T20:59:14.797Z,13.23
2023-05-21T21:01:19.877Z,13.21
2023-05-21T21:03:24.496Z,13.19
2023-05-21T21:05:29.176Z,13.20
2023-05-21T21:07:34.519Z,13.24
2023-05-21T21:09:40.474Z,13.26
2023-05-21T21:11:44.794Z,13.24
2023-05-21T21:13:50.632Z,13.24
2023-05-21T21:15:55.875Z,13.24
2023-05-21T21:18:00.087Z,13.23
2023-05-21T21:20:06.471Z,13.20
2023-05-21T21:22:11.076Z,13.18
2023-05-21T21:24:15.984Z,13.19
2023-05-21T21:26:20.428Z,13.20
2023-05-21T21:28:24.587Z,13.21
2023-05-21T21:30:29.651Z,13.25
2023-05-21T21:32:33.814Z,13.29
2023-05-21T21:34:37.793Z,13.29
2023-05-21T21:36:41.990Z,13.26
2023-05-21T21:38:45.775Z,13.27
2023-05-21T21:40:50.012Z,13.30
2023-05-21T21:42:54.554Z,13.30
2023-05-21T21:44:58.178Z,13.34
2023-05-21T21:47:04.490Z,13.35
2023-05-21T21:49:08.284Z,13.37
2023-05-21T21:51:13.135Z,13.37
2023-05-21T21:53:17.102Z,13.40
2023-05-21T21:55:21.494Z,13.45
2023-05-21T21:57:27.907Z,13.50
2023-05-21T21:59:31.804Z,13.56
2023-05-21T22:01:36.277Z,13.60
2023-05-21T22:03:41.791Z,13.60
2023-05-21T22:05:46.412Z,13.57
2023-05-21T22:07:50.979Z,13.56
2023-05-21T22:09:54.808Z,13.57
2023-05-21T22:11:58.768Z,13.58
2023-05-21T22:14:03.147Z,13.60
2023-05-21T22:16:08.006Z,13.62
2023-05-21T22:18:13.151Z,13.66
2023-05-21T22:20:18.961Z,13.70
2023-05-21T22:22:23.561Z,13.73
2023-05-21T22:24:32.493Z,13.77
2023-05-21T22:26:37.202Z,13.80
2023-05-21T22:28:41.138Z,13.83
2023-05-21T22:30:45.779Z,13.85
2023-05-21T22:32:49.833Z,13.87
2023-05-21T22:34:53.681Z,13.88
2023-05-21T22:36:59.249Z,13.90
2023-05-21T22:39:03.888Z,13.91
2023-05-21T22:41:08.925Z,13.90
2023-05-21T22:43:13.075Z,13.92
2023-05-21T22:45:19.137Z,13.93
2023-05-21T22:47:23.228Z,13.92
2023-05-21T22:49:28.041Z,13.92
2023-05-21T22:51:34.860Z,13.90
2023-05-21T22:53:40.401Z,13.85
2023-05-21T22:55:44.333Z,13.83
2023-05-21T22:57:49.810Z,13.84
2023-05-21T22:59:53.836Z,13.84
2023-05-21T23:01:58.363Z,13.84
2023-05-21T23:04:02.442Z,13.82
2023-05-21T23:06:06.791Z,13.81
2023-05-21T23:08:11.437Z,13.80
2023-05-21T23:10:17.308Z,13.79
2023-05-21T23:12:21.348Z,13.77
2023-05-21T23:14:25.591Z,13.75
2023-05-21T23:16:31.015Z,13.75
2023-05-21T23:18:35.703Z,13.76
2023-05-21T23:20:42.327Z,13.79
2023-05-21T23:22:47.057Z,13.80
2023-05-21T23:24:52.587Z,13.79
2023-05-21T23:27:03.050Z,13.79
2023-05-21T23:29:07.306Z,13.78
2023-05-21T23:31:11.469Z,13.77
2023-05-21T23:33:16.313Z,13.73
2023-05-21T23:35:20.485Z,13.70
2023-05-21T23:37:24.477Z,13.69
2023-05-21T23:39:29.580Z,13.68
2023-05-21T23:41:33.890Z,13.66
2023-05-21T23:43:40.328Z,13.66
2023-05-21T23:45:44.160Z,13.68
2023-05-21T23:47:48.246Z,13.68
2023-05-21T23:49:52.423Z,13.69
2023-05-21T23:51:57.048Z,13.69
2023-05-21T23:54:00.661Z,13.71
2023-05-21T23:56:06.951Z,13.71
2023-05-21T23:58:10.969Z,13.71
